sensor_id;sensor_type;location;lat;lon;timestamp;pressure;altitude;pressure_sealevel;temperature;humidity
77321;BME280;66382;52.252;8.780;2023-06-19T00:00:31;100051.88;;;23.37;39.38
77321;BME280;66382;52.252;8.780;2023-06-19T00:02:57;100047.78;;;23.34;39.62
77321;BME280;66382;52.252;8.780;2023-06-19T00:05:23;100040.44;;;23.30;39.60
77321;BME280;66382;52.252;8.780;2023-06-19T00:07:49;100039.34;;;23.26;39.54
77321;BME280;66382;52.252;8.780;2023-06-19T00:10:16;100045.41;;;23.23;39.79
77321;BME280;66382;52.252;8.780;2023-06-19T00:12:42;100042.13;;;23.21;39.31
77321;BME280;66382;52.252;8.780;2023-06-19T00:15:08;100040.78;;;23.18;39.49
77321;BME280;66382;52.252;8.780;2023-06-19T00:17:34;100035.03;;;23.14;39.47
77321;BME280;66382;52.252;8.780;2023-06-19T00:20:00;100034.00;;;23.10;39.64
77321;BME280;66382;52.252;8.780;2023-06-19T00:22:25;100019.81;;;23.03;39.77
77321;BME280;66382;52.252;8.780;2023-06-19T00:24:51;100024.47;;;23.03;39.86
77321;BME280;66382;52.252;8.780;2023-06-19T00:27:18;100025.00;;;23.00;39.77
77321;BME280;66382;52.252;8.780;2023-06-19T00:29:44;100017.34;;;22.96;39.89
77321;BME280;66382;52.252;8.780;2023-06-19T00:32:09;100016.53;;;22.96;40.53
77321;BME280;66382;52.252;8.780;2023-06-19T00:34:35;100009.19;;;22.91;40.23
77321;BME280;66382;52.252;8.780;2023-06-19T00:37:01;100016.56;;;22.91;40.05
77321;BME280;66382;52.252;8.780;2023-06-19T00:39:26;100013.03;;;22.90;40.30
77321;BME280;66382;52.252;8.780;2023-06-19T00:41:52;100011.94;;;22.86;40.09
77321;BME280;66382;52.252;8.780;2023-06-19T00:44:19;100014.69;;;22.86;40.31
77321;BME280;66382;52.252;8.780;2023-06-19T00:46:46;100018.25;;;22.82;40.48
77321;BME280;66382;52.252;8.780;2023-06-19T00:49:11;100017.69;;;22.85;40.25
77321;BME280;66382;52.252;8.780;2023-06-19T00:51:37;100013.88;;;22.86;40.41
77321;BME280;66382;52.252;8.780;2023-06-19T00:54:03;100008.69;;;22.84;40.16
77321;BME280;66382;52.252;8.780;2023-06-19T00:56:30;100012.53;;;22.83;40.81
77321;BME280;66382;52.252;8.780;2023-06-19T00:58:56;100008.44;;;22.81;40.86
77321;BME280;66382;52.252;8.780;2023-06-19T01:01:23;100009.81;;;22.78;40.68
77321;BME280;66382;52.252;8.780;2023-06-19T01:03:49;99994.81;;;22.75;40.38
77321;BME280;66382;52.252;8.780;2023-06-19T01:06:21;100000.28;;;22.75;40.25
77321;BME280;66382;52.252;8.780;2023-06-19T01:08:53;99992.63;;;22.72;40.55
77321;BME280;66382;52.252;8.780;2023-06-19T01:11:23;99998.09;;;22.72;40.68
77321;BME280;66382;52.252;8.780;2023-06-19T01:13:55;99998.94;;;22.68;40.65
77321;BME280;66382;52.252;8.780;2023-06-19T01:16:22;99993.75;;;22.66;41.01
77321;BME280;66382;52.252;8.780;2023-06-19T01:18:48;99988.56;;;22.65;40.71
77321;BME280;66382;52.252;8.780;2023-06-19T01:21:16;99986.94;;;22.64;41.18
77321;BME280;66382;52.252;8.780;2023-06-19T01:23:44;99983.41;;;22.63;40.87
77321;BME280;66382;52.252;8.780;2023-06-19T01:26:11;99974.13;;;22.59;40.76
77321;BME280;66382;52.252;8.780;2023-06-19T01:28:39;99979.56;;;22.59;41.29
77321;BME280;66382;52.252;8.780;2023-06-19T01:31:11;99974.66;;;22.61;40.70
77321;BME280;66382;52.252;8.780;2023-06-19T01:33:37;99972.72;;;22.62;41.08
77321;BME280;66382;52.252;8.780;2023-06-19T01:36:04;99964.28;;;22.63;40.88
77321;BME280;66382;52.252;8.780;2023-06-19T01:38:31;99957.69;;;22.64;41.26
77321;BME280;66382;52.252;8.780;2023-06-19T01:40:59;99943.22;;;22.64;40.90
77321;BME280;66382;52.252;8.780;2023-06-19T01:43:27;99953.34;;;22.63;41.29
77321;BME280;66382;52.252;8.780;2023-06-19T01:45:55;99948.13;;;22.62;41.03
77321;BME280;66382;52.252;8.780;2023-06-19T01:48:21;99949.53;;;22.59;41.09
77321;BME280;66382;52.252;8.780;2023-06-19T01:50:47;99945.97;;;22.59;41.16
77321;BME280;66382;52.252;8.780;2023-06-19T01:53:13;99949.81;;;22.58;41.02
77321;BME280;66382;52.252;8.780;2023-06-19T01:55:39;99950.63;;;22.58;41.26
77321;BME280;66382;52.252;8.780;2023-06-19T01:58:06;99947.91;;;22.58;41.24
77321;BME280;66382;52.252;8.780;2023-06-19T02:00:32;99959.66;;;22.59;41.22
77321;BME280;66382;52.252;8.780;2023-06-19T02:02:57;99962.66;;;22.57;41.29
77321;BME280;66382;52.252;8.780;2023-06-19T02:05:23;99966.50;;;22.56;41.49
77321;BME280;66382;52.252;8.780;2023-06-19T02:07:49;99962.41;;;22.53;41.77
77321;BME280;66382;52.252;8.780;2023-06-19T02:10:14;99963.47;;;22.52;41.44
77321;BME280;66382;52.252;8.780;2023-06-19T02:12:40;99960.25;;;22.50;41.44
77321;BME280;66382;52.252;8.780;2023-06-19T02:15:08;99958.88;;;22.48;41.05
77321;BME280;66382;52.252;8.780;2023-06-19T02:17:34;99958.03;;;22.47;41.27
77321;BME280;66382;52.252;8.780;2023-06-19T02:20:00;99954.50;;;22.47;41.28
77321;BME280;66382;52.252;8.780;2023-06-19T02:22:26;99959.97;;;22.47;41.45
77321;BME280;66382;52.252;8.780;2023-06-19T02:24:51;99956.44;;;22.46;41.60
77321;BME280;66382;52.252;8.780;2023-06-19T02:27:17;99954.81;;;22.45;41.78
77321;BME280;66382;52.252;8.780;2023-06-19T02:29:43;99960.81;;;22.42;41.78
77321;BME280;66382;52.252;8.780;2023-06-19T02:32:10;99959.19;;;22.41;41.78
77321;BME280;66382;52.252;8.780;2023-06-19T02:34:36;99955.91;;;22.39;42.30
77321;BME280;66382;52.252;8.780;2023-06-19T02:37:01;99955.66;;;22.36;41.76
77321;BME280;66382;52.252;8.780;2023-06-19T02:39:27;99961.41;;;22.34;41.97
77321;BME280;66382;52.252;8.780;2023-06-19T02:41:53;99955.13;;;22.33;41.70
77321;BME280;66382;52.252;8.780;2023-06-19T02:44:18;99956.19;;;22.32;42.10
77321;BME280;66382;52.252;8.780;2023-06-19T02:46:44;99958.44;;;22.30;42.11
77321;BME280;66382;52.252;8.780;2023-06-19T02:49:11;99957.59;;;22.30;41.96
77321;BME280;66382;52.252;8.780;2023-06-19T02:51:37;99957.59;;;22.30;42.61
77321;BME280;66382;52.252;8.780;2023-06-19T02:54:03;99960.03;;;22.31;42.25
77321;BME280;66382;52.252;8.780;2023-06-19T02:56:28;99961.97;;;22.31;42.52
77321;BME280;66382;52.252;8.780;2023-06-19T02:58:54;99960.03;;;22.31;42.15
77321;BME280;66382;52.252;8.780;2023-06-19T03:01:20;99964.13;;;22.34;42.04
77321;BME280;66382;52.252;8.780;2023-06-19T03:03:45;99963.31;;;22.33;42.23
77321;BME280;66382;52.252;8.780;2023-06-19T03:06:12;99967.13;;;22.32;42.35
77321;BME280;66382;52.252;8.780;2023-06-19T03:08:38;99972.59;;;22.32;42.12
77321;BME280;66382;52.252;8.780;2023-06-19T03:11:04;99971.78;;;22.32;42.06
77321;BME280;66382;52.252;8.780;2023-06-19T03:13:35;99961.66;;;22.32;42.21
77321;BME280;66382;52.252;8.780;2023-06-19T03:16:01;99966.59;;;22.36;42.19
77321;BME280;66382;52.252;8.780;2023-06-19T03:18:26;99964.94;;;22.35;42.22
77321;BME280;66382;52.252;8.780;2023-06-19T03:20:52;99967.97;;;22.33;42.36
77321;BME280;66382;52.252;8.780;2023-06-19T03:23:19;99961.66;;;22.32;42.12
77321;BME280;66382;52.252;8.780;2023-06-19T03:25:45;99958.13;;;22.32;42.17
77321;BME280;66382;52.252;8.780;2023-06-19T03:28:10;99967.13;;;22.32;42.42
77321;BME280;66382;52.252;8.780;2023-06-19T03:30:36;99959.50;;;22.29;42.38
77321;BME280;66382;52.252;8.780;2023-06-19T03:33:02;99958.41;;;22.25;42.54
77321;BME280;66382;52.252;8.780;2023-06-19T03:35:27;99960.63;;;22.23;42.44
77321;BME280;66382;52.252;8.780;2023-06-19T03:37:53;99954.91;;;22.20;42.67
77321;BME280;66382;52.252;8.780;2023-06-19T03:40:20;99958.97;;;22.17;42.48
77321;BME280;66382;52.252;8.780;2023-06-19T03:42:46;99954.88;;;22.15;42.60
77321;BME280;66382;52.252;8.780;2023-06-19T03:45:12;99954.38;;;22.07;42.44
77321;BME280;66382;52.252;8.780;2023-06-19T03:47:37;99964.72;;;22.10;42.72
77321;BME280;66382;52.252;8.780;2023-06-19T03:50:04;99969.66;;;22.08;43.25
77321;BME280;66382;52.252;8.780;2023-06-19T03:52:30;99969.66;;;22.08;42.95
77321;BME280;66382;52.252;8.780;2023-06-19T03:54:55;99963.91;;;22.10;42.63
77321;BME280;66382;52.252;8.780;2023-06-19T03:57:22;99969.38;;;22.10;42.95
77321;BME280;66382;52.252;8.780;2023-06-19T03:59:48;99970.75;;;22.07;42.74
77321;BME280;66382;52.252;8.780;2023-06-19T04:02:14;99969.94;;;22.07;43.19
77321;BME280;66382;52.252;8.780;2023-06-19T04:04:39;99971.84;;;22.06;42.69
77321;BME280;66382;52.252;8.780;2023-06-19T04:07:05;99974.59;;;22.06;42.73
77321;BME280;66382;52.252;8.780;2023-06-19T04:09:31;99975.41;;;22.07;43.09
77321;BME280;66382;52.252;8.780;2023-06-19T04:11:57;99976.75;;;22.04;42.86
77321;BME280;66382;52.252;8.780;2023-06-19T04:14:24;99980.31;;;22.05;42.76
77321;BME280;66382;52.252;8.780;2023-06-19T04:16:49;99971.31;;;22.04;42.98
77321;BME280;66382;52.252;8.780;2023-06-19T04:19:15;99977.88;;;22.03;43.46
77321;BME280;66382;52.252;8.780;2023-06-19T04:21:42;99976.75;;;22.04;43.07
77321;BME280;66382;52.252;8.780;2023-06-19T04:24:08;99974.03;;;22.04;43.37
77321;BME280;66382;52.252;8.780;2023-06-19T04:26:33;99973.50;;;22.02;42.95
77321;BME280;66382;52.252;8.780;2023-06-19T04:28:59;99964.75;;;22.00;43.32
77321;BME280;66382;52.252;8.780;2023-06-19T04:31:26;99968.06;;;21.97;43.95
77321;BME280;66382;52.252;8.780;2023-06-19T04:33:52;99980.88;;;21.97;43.71
77321;BME280;66382;52.252;8.780;2023-06-19T04:36:18;99973.78;;;21.96;43.51
77321;BME280;66382;52.252;8.780;2023-06-19T04:38:44;99972.16;;;21.95;43.77
77321;BME280;66382;52.252;8.780;2023-06-19T04:41:10;99980.88;;;21.97;43.97
77321;BME280;66382;52.252;8.780;2023-06-19T04:43:36;99989.88;;;21.97;44.02
77321;BME280;66382;52.252;8.780;2023-06-19T04:46:02;99992.91;;;22.01;44.23
77321;BME280;66382;52.252;8.780;2023-06-19T04:48:29;99988.50;;;22.05;44.17
77321;BME280;66382;52.252;8.780;2023-06-19T04:50:55;99963.41;;;21.93;44.16
77321;BME280;66382;52.252;8.780;2023-06-19T04:53:21;99982.50;;;22.03;44.00
77321;BME280;66382;52.252;8.780;2023-06-19T04:55:47;99981.97;;;22.01;44.36
77321;BME280;66382;52.252;8.780;2023-06-19T04:58:13;100001.59;;;22.03;44.65
77321;BME280;66382;52.252;8.780;2023-06-19T05:00:38;100001.91;;;22.01;45.53
77321;BME280;66382;52.252;8.780;2023-06-19T05:03:04;99999.97;;;22.02;44.86
77321;BME280;66382;52.252;8.780;2023-06-19T05:05:31;99999.16;;;22.01;46.02
77321;BME280;66382;52.252;8.780;2023-06-19T05:07:57;99992.91;;;22.01;45.34
77321;BME280;66382;52.252;8.780;2023-06-19T05:10:22;100002.72;;;22.02;45.00
77321;BME280;66382;52.252;8.780;2023-06-19T05:12:48;99996.97;;;22.03;45.59
77321;BME280;66382;52.252;8.780;2023-06-19T05:15:14;99991.78;;;22.02;45.15
77321;BME280;66382;52.252;8.780;2023-06-19T05:17:40;100002.69;;;22.07;45.75
77321;BME280;66382;52.252;8.780;2023-06-19T05:20:06;99996.97;;;22.08;45.43
77321;BME280;66382;52.252;8.780;2023-06-19T05:22:33;100007.31;;;22.11;45.51
77321;BME280;66382;52.252;8.780;2023-06-19T05:24:59;100000.50;;;22.09;45.39
77321;BME280;66382;52.252;8.780;2023-06-19T05:27:25;100006.22;;;22.07;46.34
77321;BME280;66382;52.252;8.780;2023-06-19T05:29:50;100014.69;;;22.16;46.04
77321;BME280;66382;52.252;8.780;2023-06-19T05:32:16;100023.69;;;22.17;46.64
77321;BME280;66382;52.252;8.780;2023-06-19T05:34:42;100026.69;;;22.20;46.23
77321;BME280;66382;52.252;8.780;2023-06-19T05:37:08;100031.09;;;22.21;45.53
77321;BME280;66382;52.252;8.780;2023-06-19T05:39:35;100037.09;;;22.23;47.01
77321;BME280;66382;52.252;8.780;2023-06-19T05:42:00;100029.16;;;22.17;46.66
77321;BME280;66382;52.252;8.780;2023-06-19T05:44:26;100045.53;;;22.27;46.52
77321;BME280;66382;52.252;8.780;2023-06-19T05:46:52;100042.00;;;22.26;46.13
77321;BME280;66382;52.252;8.780;2023-06-19T05:49:17;100040.06;;;22.27;46.81
77321;BME280;66382;52.252;8.780;2023-06-19T05:51:43;100044.16;;;22.29;46.74
77321;BME280;66382;52.252;8.780;2023-06-19T05:54:09;100039.25;;;22.31;46.13
77321;BME280;66382;52.252;8.780;2023-06-19T05:56:36;100046.31;;;22.38;45.47
77321;BME280;66382;52.252;8.780;2023-06-19T05:59:02;100035.94;;;22.40;45.82
77321;BME280;66382;52.252;8.780;2023-06-19T06:01:28;100050.09;;;22.52;45.44
77321;BME280;66382;52.252;8.780;2023-06-19T06:03:54;100057.44;;;22.62;44.74
77321;BME280;66382;52.252;8.780;2023-06-19T06:06:20;100066.69;;;22.71;45.61
77321;BME280;66382;52.252;8.780;2023-06-19T06:08:45;100065.03;;;22.80;45.07
77321;BME280;66382;52.252;8.780;2023-06-19T06:11:11;100071.50;;;22.89;46.05
77321;BME280;66382;52.252;8.780;2023-06-19T06:13:38;100073.41;;;22.99;45.53
77321;BME280;66382;52.252;8.780;2023-06-19T06:16:04;100081.56;;;23.09;45.81
77321;BME280;66382;52.252;8.780;2023-06-19T06:18:29;100079.06;;;23.18;45.61
77321;BME280;66382;52.252;8.780;2023-06-19T06:20:55;100075.47;;;23.23;46.25
77321;BME280;66382;52.252;8.780;2023-06-19T06:23:21;100080.59;;;23.29;45.91
77321;BME280;66382;52.252;8.780;2023-06-19T06:25:47;100084.44;;;23.33;45.27
77321;BME280;66382;52.252;8.780;2023-06-19T06:28:12;100087.13;;;23.38;45.59
77321;BME280;66382;52.252;8.780;2023-06-19T06:30:39;100091.22;;;23.41;45.93
77321;BME280;66382;52.252;8.780;2023-06-19T06:33:05;100099.09;;;23.48;45.77
77321;BME280;66382;52.252;8.780;2023-06-19T06:35:31;100096.09;;;23.49;45.67
77321;BME280;66382;52.252;8.780;2023-06-19T06:37:57;100101.81;;;23.53;47.33
77321;BME280;66382;52.252;8.780;2023-06-19T06:40:22;100103.44;;;23.54;46.42
77321;BME280;66382;52.252;8.780;2023-06-19T06:42:48;100103.97;;;23.56;46.61
77321;BME280;66382;52.252;8.780;2023-06-19T06:45:14;100104.50;;;23.58;45.98
77321;BME280;66382;52.252;8.780;2023-06-19T06:47:41;100114.63;;;23.57;46.90
77321;BME280;66382;52.252;8.780;2023-06-19T06:50:07;100116.25;;;23.58;46.72
77321;BME280;66382;52.252;8.780;2023-06-19T06:52:33;100108.06;;;23.58;47.47
77321;BME280;66382;52.252;8.780;2023-06-19T06:54:59;100112.97;;;23.61;46.93
77321;BME280;66382;52.252;8.780;2023-06-19T06:57:25;100105.31;;;23.58;46.17
77321;BME280;66382;52.252;8.780;2023-06-19T06:59:50;100122.50;;;23.69;47.24
77321;BME280;66382;52.252;8.780;2023-06-19T07:02:16;100120.25;;;23.71;46.74
77321;BME280;66382;52.252;8.780;2023-06-19T07:04:43;100121.91;;;23.77;47.05
77321;BME280;66382;52.252;8.780;2023-06-19T07:07:09;100123.78;;;23.82;45.88
77321;BME280;66382;52.252;8.780;2023-06-19T07:09:35;100123.22;;;23.85;46.32
77321;BME280;66382;52.252;8.780;2023-06-19T07:12:00;100114.72;;;23.87;46.71
77321;BME280;66382;52.252;8.780;2023-06-19T07:14:26;100128.63;;;23.90;47.22
77321;BME280;66382;52.252;8.780;2023-06-19T07:16:52;100130.53;;;23.95;46.41
77321;BME280;66382;52.252;8.780;2023-06-19T07:19:17;100133.22;;;24.00;46.01
77321;BME280;66382;52.252;8.780;2023-06-19T07:21:45;100130.44;;;24.05;46.65
77321;BME280;66382;52.252;8.780;2023-06-19T07:24:10;100135.88;;;24.10;47.19
77321;BME280;66382;52.252;8.780;2023-06-19T07:26:36;100137.75;;;24.15;47.11
77321;BME280;66382;52.252;8.780;2023-06-19T07:29:02;100131.41;;;24.19;45.56
77321;BME280;66382;52.252;8.780;2023-06-19T07:31:27;100136.03;;;24.24;47.40
77321;BME280;66382;52.252;8.780;2023-06-19T07:33:53;100128.56;;;24.30;47.32
77321;BME280;66382;52.252;8.780;2023-06-19T07:36:19;100134.28;;;24.33;47.08
77321;BME280;66382;52.252;8.780;2023-06-19T07:38:46;100143.84;;;24.36;46.45
77321;BME280;66382;52.252;8.780;2023-06-19T07:41:12;100142.16;;;24.40;46.88
77321;BME280;66382;52.252;8.780;2023-06-19T07:43:37;100145.69;;;24.45;46.73
77321;BME280;66382;52.252;8.780;2023-06-19T07:46:04;100142.91;;;24.51;46.86
77321;BME280;66382;52.252;8.780;2023-06-19T07:48:29;100142.31;;;24.54;46.84
77321;BME280;66382;52.252;8.780;2023-06-19T07:50:56;100153.25;;;24.59;46.68
77321;BME280;66382;52.252;8.780;2023-06-19T07:53:21;100148.81;;;24.63;46.40
77321;BME280;66382;52.252;8.780;2023-06-19T07:55:49;100146.88;;;24.63;47.45
77321;BME280;66382;52.252;8.780;2023-06-19T07:58:14;100153.47;;;24.62;46.34
77321;BME280;66382;52.252;8.780;2023-06-19T08:00:40;100165.75;;;24.65;46.72
77321;BME280;66382;52.252;8.780;2023-06-19T08:03:06;100148.69;;;24.73;46.73
77321;BME280;66382;52.252;8.780;2023-06-19T08:05:31;100150.19;;;24.84;46.50
77321;BME280;66382;52.252;8.780;2023-06-19T08:07:58;100150.66;;;24.92;46.74
77321;BME280;66382;52.252;8.780;2023-06-19T08:10:24;100152.81;;;24.95;46.66
77321;BME280;66382;52.252;8.780;2023-06-19T08:12:51;100150.66;;;24.92;47.31
77321;BME280;66382;52.252;8.780;2023-06-19T08:15:17;100160.22;;;24.94;46.53
77321;BME280;66382;52.252;8.780;2023-06-19T08:17:43;100152.53;;;24.96;46.52
77321;BME280;66382;52.252;8.780;2023-06-19T08:20:09;100153.00;;;25.03;46.63
77321;BME280;66382;52.252;8.780;2023-06-19T08:22:35;100157.22;;;25.20;45.83
77321;BME280;66382;52.252;8.780;2023-06-19T08:25:01;100152.84;;;25.38;47.12
77321;BME280;66382;52.252;8.780;2023-06-19T08:27:27;100165.47;;;25.58;46.15
77321;BME280;66382;52.252;8.780;2023-06-19T08:29:54;100157.88;;;25.68;45.84
77321;BME280;66382;52.252;8.780;2023-06-19T08:32:19;100160.34;;;25.70;45.65
77321;BME280;66382;52.252;8.780;2023-06-19T08:34:45;100166.72;;;25.65;45.84
77321;BME280;66382;52.252;8.780;2023-06-19T08:37:11;100173.91;;;25.61;46.65
77321;BME280;66382;52.252;8.780;2023-06-19T08:39:37;100179.47;;;25.56;45.57
77321;BME280;66382;52.252;8.780;2023-06-19T08:42:03;100173.59;;;25.44;45.51
77321;BME280;66382;52.252;8.780;2023-06-19T08:44:28;100179.25;;;25.34;45.96
77321;BME280;66382;52.252;8.780;2023-06-19T08:46:57;100182.88;;;25.29;46.38
77321;BME280;66382;52.252;8.780;2023-06-19T08:49:23;100179.91;;;25.25;45.87
77321;BME280;66382;52.252;8.780;2023-06-19T08:51:48;100183.19;;;25.27;46.00
77321;BME280;66382;52.252;8.780;2023-06-19T08:54:14;100182.81;;;25.53;46.96
77321;BME280;66382;52.252;8.780;2023-06-19T08:56:40;100195.81;;;26.04;46.45
77321;BME280;66382;52.252;8.780;2023-06-19T08:59:09;100194.84;;;26.28;46.10
77321;BME280;66382;52.252;8.780;2023-06-19T09:01:35;100199.97;;;26.34;46.71
77321;BME280;66382;52.252;8.780;2023-06-19T09:04:09;100204.22;;;26.27;45.52
77321;BME280;66382;52.252;8.780;2023-06-19T09:06:35;100204.50;;;26.11;45.15
77321;BME280;66382;52.252;8.780;2023-06-19T09:09:01;100203.53;;;26.02;45.47
77321;BME280;66382;52.252;8.780;2023-06-19T09:11:27;100218.28;;;26.06;45.66
77321;BME280;66382;52.252;8.780;2023-06-19T09:13:56;100221.34;;;26.05;45.88
77321;BME280;66382;52.252;8.780;2023-06-19T09:16:22;100221.19;;;25.96;45.28
77321;BME280;66382;52.252;8.780;2023-06-19T09:18:48;100222.31;;;25.95;46.31
77321;BME280;66382;52.252;8.780;2023-06-19T09:21:20;100222.94;;;25.92;45.65
77321;BME280;66382;52.252;8.780;2023-06-19T09:23:46;100214.81;;;25.82;45.51
77321;BME280;66382;52.252;8.780;2023-06-19T09:26:14;100224.69;;;26.02;45.54
77321;BME280;66382;52.252;8.780;2023-06-19T09:28:40;100225.09;;;26.28;46.43
77321;BME280;66382;52.252;8.780;2023-06-19T09:31:06;100222.97;;;26.57;45.51
77321;BME280;66382;52.252;8.780;2023-06-19T09:33:33;100230.59;;;26.60;45.36
77321;BME280;66382;52.252;8.780;2023-06-19T09:36:00;100242.06;;;26.49;44.67
77321;BME280;66382;52.252;8.780;2023-06-19T09:38:29;100230.56;;;26.47;45.66
77321;BME280;66382;52.252;8.780;2023-06-19T09:40:56;100228.28;;;26.68;45.64
77321;BME280;66382;52.252;8.780;2023-06-19T09:43:24;100230.19;;;27.28;45.93
77321;BME280;66382;52.252;8.780;2023-06-19T09:45:50;100229.28;;;27.82;46.10
77321;BME280;66382;52.252;8.780;2023-06-19T09:48:20;100229.97;;;28.47;46.48
77321;BME280;66382;52.252;8.780;2023-06-19T09:50:50;100222.31;;;29.15;46.00
77321;BME280;66382;52.252;8.780;2023-06-19T09:53:17;100225.47;;;29.40;45.17
77321;BME280;66382;52.252;8.780;2023-06-19T09:55:45;100230.06;;;29.62;43.96
77321;BME280;66382;52.252;8.780;2023-06-19T09:58:12;100230.34;;;29.34;42.93
77321;BME280;66382;52.252;8.780;2023-06-19T10:00:39;100235.06;;;28.93;42.75
77321;BME280;66382;52.252;8.780;2023-06-19T10:03:11;100227.75;;;28.58;43.13
77321;BME280;66382;52.252;8.780;2023-06-19T10:05:38;100228.16;;;28.28;43.05
77321;BME280;66382;52.252;8.780;2023-06-19T10:08:04;100227.31;;;28.19;43.59
77321;BME280;66382;52.252;8.780;2023-06-19T10:10:30;100232.56;;;28.29;43.88
77321;BME280;66382;52.252;8.780;2023-06-19T10:12:59;100237.44;;;28.33;44.27
77321;BME280;66382;52.252;8.780;2023-06-19T10:15:26;100237.38;;;28.24;42.94
77321;BME280;66382;52.252;8.780;2023-06-19T10:17:59;100246.78;;;28.00;43.58
77321;BME280;66382;52.252;8.780;2023-06-19T10:20:28;100246.63;;;27.69;42.48
77321;BME280;66382;52.252;8.780;2023-06-19T10:22:58;100247.69;;;27.45;43.47
77321;BME280;66382;52.252;8.780;2023-06-19T10:25:28;100238.00;;;27.34;43.68
77321;BME280;66382;52.252;8.780;2023-06-19T10:27:54;100239.16;;;27.19;44.33
77321;BME280;66382;52.252;8.780;2023-06-19T10:30:21;100242.78;;;27.01;44.38
77321;BME280;66382;52.252;8.780;2023-06-19T10:32:47;100237.25;;;26.87;43.95
77321;BME280;66382;52.252;8.780;2023-06-19T10:35:13;100230.34;;;26.76;45.05
77321;BME280;66382;52.252;8.780;2023-06-19T10:37:40;100242.03;;;26.68;45.32
77321;BME280;66382;52.252;8.780;2023-06-19T10:40:06;100249.94;;;26.55;44.07
77321;BME280;66382;52.252;8.780;2023-06-19T10:42:32;100251.22;;;26.44;44.57
77321;BME280;66382;52.252;8.780;2023-06-19T10:45:01;100249.44;;;26.34;44.17
77321;BME280;66382;52.252;8.780;2023-06-19T10:47:28;100254.78;;;26.26;44.53
77321;BME280;66382;52.252;8.780;2023-06-19T10:49:54;100251.19;;;26.11;44.60
77321;BME280;66382;52.252;8.780;2023-06-19T10:52:20;100257.16;;;26.00;44.41
77321;BME280;66382;52.252;8.780;2023-06-19T10:54:46;100250.69;;;25.90;45.35
77321;BME280;66382;52.252;8.780;2023-06-19T10:57:18;100252.66;;;25.85;44.14
77321;BME280;66382;52.252;8.780;2023-06-19T10:59:43;100257.97;;;25.76;44.38
77321;BME280;66382;52.252;8.780;2023-06-19T11:02:10;100251.81;;;25.65;44.15
77321;BME280;66382;52.252;8.780;2023-06-19T11:04:38;100266.16;;;25.62;44.79
77321;BME280;66382;52.252;8.780;2023-06-19T11:07:05;100262.28;;;25.63;45.35
77321;BME280;66382;52.252;8.780;2023-06-19T11:09:31;100259.53;;;25.63;45.20
77321;BME280;66382;52.252;8.780;2023-06-19T11:11:56;100258.88;;;25.71;44.93
77321;BME280;66382;52.252;8.780;2023-06-19T11:14:22;100255.16;;;25.81;45.20
77321;BME280;66382;52.252;8.780;2023-06-19T11:16:48;100253.28;;;26.01;44.90
77321;BME280;66382;52.252;8.780;2023-06-19T11:19:16;100257.19;;;26.13;45.03
77321;BME280;66382;52.252;8.780;2023-06-19T11:21:47;100261.50;;;26.20;44.96
77321;BME280;66382;52.252;8.780;2023-06-19T11:24:14;100254.97;;;26.15;45.22
77321;BME280;66382;52.252;8.780;2023-06-19T11:26:40;100257.59;;;26.07;44.69
77321;BME280;66382;52.252;8.780;2023-06-19T11:29:16;100253.50;;;26.04;44.74
77321;BME280;66382;52.252;8.780;2023-06-19T11:31:42;100265.31;;;26.05;44.51
77321;BME280;66382;52.252;8.780;2023-06-19T11:34:08;100263.97;;;26.02;44.68
77321;BME280;66382;52.252;8.780;2023-06-19T11:36:37;100269.81;;;25.95;45.01
77321;BME280;66382;52.252;8.780;2023-06-19T11:39:04;100277.25;;;25.95;44.68
77321;BME280;66382;52.252;8.780;2023-06-19T11:41:29;100283.03;;;25.93;46.47
77321;BME280;66382;52.252;8.780;2023-06-19T11:43:59;100283.34;;;25.92;44.84
77321;BME280;66382;52.252;8.780;2023-06-19T11:46:28;100288.44;;;25.80;44.45
77321;BME280;66382;52.252;8.780;2023-06-19T11:48:55;100279.94;;;25.76;44.52
77321;BME280;66382;52.252;8.780;2023-06-19T11:51:21;100283.56;;;25.71;44.89
77321;BME280;66382;52.252;8.780;2023-06-19T11:53:47;100276.53;;;25.65;44.89
77321;BME280;66382;52.252;8.780;2023-06-19T11:56:14;100289.72;;;25.63;45.23
77321;BME280;66382;52.252;8.780;2023-06-19T11:58:40;100281.78;;;25.62;46.04
77321;BME280;66382;52.252;8.780;2023-06-19T12:01:05;100285.66;;;25.61;45.33
77321;BME280;66382;52.252;8.780;2023-06-19T12:03:31;100285.13;;;25.59;46.00
77321;BME280;66382;52.252;8.780;2023-06-19T12:05:57;100287.59;;;25.60;45.63
77321;BME280;66382;52.252;8.780;2023-06-19T12:08:23;100293.88;;;25.61;45.88
77321;BME280;66382;52.252;8.780;2023-06-19T12:10:49;100281.78;;;25.62;45.79
77321;BME280;66382;52.252;8.780;2023-06-19T12:13:16;100284.53;;;25.62;45.98
77321;BME280;66382;52.252;8.780;2023-06-19T12:15:41;100277.66;;;25.64;45.46
77321;BME280;66382;52.252;8.780;2023-06-19T12:18:07;100276.19;;;25.72;47.05
77321;BME280;66382;52.252;8.780;2023-06-19T12:20:33;100276.31;;;25.81;47.21
77321;BME280;66382;52.252;8.780;2023-06-19T12:22:58;100278.38;;;25.94;46.90
77321;BME280;66382;52.252;8.780;2023-06-19T12:25:24;100273.63;;;26.00;46.27
77321;BME280;66382;52.252;8.780;2023-06-19T12:27:50;100269.47;;;26.02;47.23
77321;BME280;66382;52.252;8.780;2023-06-19T12:30:17;100276.56;;;26.03;46.52
77321;BME280;66382;52.252;8.780;2023-06-19T12:32:43;100271.59;;;26.05;45.83
77321;BME280;66382;52.252;8.780;2023-06-19T12:35:09;100267.97;;;26.10;46.07
77321;BME280;66382;52.252;8.780;2023-06-19T12:37:34;100262.75;;;26.08;45.75
77321;BME280;66382;52.252;8.780;2023-06-19T12:40:00;100268.19;;;26.13;45.74
77321;BME280;66382;52.252;8.780;2023-06-19T12:42:26;100263.22;;;26.15;45.27
77321;BME280;66382;52.252;8.780;2023-06-19T12:44:51;100272.41;;;26.25;45.26
77321;BME280;66382;52.252;8.780;2023-06-19T12:47:18;100270.09;;;26.32;45.45